sensor_id;sensor_type;location;lat;lon;timestamp;temperature;humidity
39021;DHT22;25188;51.958;5.842;2022-07-01T00:01:43;14.70;99.90
39021;DHT22;25188;51.958;5.842;2022-07-01T00:04:10;14.70;99.90
39021;DHT22;25188;51.958;5.842;2022-07-01T00:06:36;14.70;99.90
39021;DHT22;25188;51.958;5.842;2022-07-01T00:09:03;14.70;99.90
39021;DHT22;25188;51.958;5.842;2022-07-01T00:11:30;14.60;99.90
39021;DHT22;25188;51.958;5.842;2022-07-01T00:13:56;14.60;99.90
39021;DHT22;25188;51.958;5.842;2022-07-01T00:16:22;14.60;99.90
39021;DHT22;25188;51.958;5.842;2022-07-01T00:18:48;14.60;99.90
39021;DHT22;25188;51.958;5.842;2022-07-01T00:21:13;14.60;99.90
39021;DHT22;25188;51.958;5.842;2022-07-01T00:23:40;14.50;99.90
39021;DHT22;25188;51.958;5.842;2022-07-01T00:26:06;14.50;99.90
39021;DHT22;25188;51.958;5.842;2022-07-01T00:28:31;14.50;99.90
39021;DHT22;25188;51.958;5.842;2022-07-01T00:30:57;14.50;99.90
39021;DHT22;25188;51.958;5.842;2022-07-01T00:33:23;14.50;99.90
39021;DHT22;25188;51.958;5.842;2022-07-01T00:35:48;14.40;99.90
39021;DHT22;25188;51.958;5.842;2022-07-01T00:38:14;14.40;99.90
39021;DHT22;25188;51.958;5.842;2022-07-01T00:40:40;14.40;99.90
39021;DHT22;25188;51.958;5.842;2022-07-01T00:43:05;14.40;99.90
39021;DHT22;25188;51.958;5.842;2022-07-01T00:45:31;14.50;99.90
39021;DHT22;25188;51.958;5.842;2022-07-01T00:47:57;14.50;99.90
39021;DHT22;25188;51.958;5.842;2022-07-01T00:50:23;14.50;99.90
39021;DHT22;25188;51.958;5.842;2022-07-01T00:52:48;14.50;99.90
39021;DHT22;25188;51.958;5.842;2022-07-01T00:55:14;14.60;99.90
39021;DHT22;25188;51.958;5.842;2022-07-01T00:57:41;14.60;99.90
39021;DHT22;25188;51.958;5.842;2022-07-01T01:00:14;14.60;99.90
39021;DHT22;25188;51.958;5.842;2022-07-01T01:02:40;14.70;99.90
39021;DHT22;25188;51.958;5.842;2022-07-01T01:05:08;14.60;99.90
39021;DHT22;25188;51.958;5.842;2022-07-01T01:07:34;14.70;99.90
39021;DHT22;25188;51.958;5.842;2022-07-01T01:10:01;14.60;99.90
39021;DHT22;25188;51.958;5.842;2022-07-01T01:12:29;14.70;99.90
39021;DHT22;25188;51.958;5.842;2022-07-01T01:14:56;14.60;99.90
39021;DHT22;25188;51.958;5.842;2022-07-01T01:17:23;14.70;99.90
39021;DHT22;25188;51.958;5.842;2022-07-01T01:19:49;14.70;99.90
39021;DHT22;25188;51.958;5.842;2022-07-01T01:22:16;14.60;99.90
39021;DHT22;25188;51.958;5.842;2022-07-01T01:24:43;14.60;99.90
39021;DHT22;25188;51.958;5.842;2022-07-01T01:27:09;14.60;99.90
39021;DHT22;25188;51.958;5.842;2022-07-01T01:29:35;14.60;99.90
39021;DHT22;25188;51.958;5.842;2022-07-01T01:32:03;14.60;99.90
39021;DHT22;25188;51.958;5.842;2022-07-01T01:34:29;14.60;99.90
39021;DHT22;25188;51.958;5.842;2022-07-01T01:36:55;14.50;99.90
39021;DHT22;25188;51.958;5.842;2022-07-01T01:39:20;14.50;99.90
39021;DHT22;25188;51.958;5.842;2022-07-01T01:41:46;14.50;99.90
39021;DHT22;25188;51.958;5.842;2022-07-01T01:44:12;14.50;99.90
39021;DHT22;25188;51.958;5.842;2022-07-01T01:46:38;14.50;99.90
39021;DHT22;25188;51.958;5.842;2022-07-01T01:49:05;14.50;99.90
39021;DHT22;25188;51.958;5.842;2022-07-01T01:51:31;14.50;99.90
39021;DHT22;25188;51.958;5.842;2022-07-01T01:53:57;14.40;99.90
39021;DHT22;25188;51.958;5.842;2022-07-01T01:56:23;14.40;99.90
39021;DHT22;25188;51.958;5.842;2022-07-01T01:58:49;14.40;99.90
39021;DHT22;25188;51.958;5.842;2022-07-01T02:01:16;14.40;99.90
39021;DHT22;25188;51.958;5.842;2022-07-01T02:03:44;14.40;99.90
39021;DHT22;25188;51.958;5.842;2022-07-01T02:06:10;14.40;99.90
39021;DHT22;25188;51.958;5.842;2022-07-01T02:08:37;14.40;99.90
39021;DHT22;25188;51.958;5.842;2022-07-01T02:11:03;14.40;99.90
39021;DHT22;25188;51.958;5.842;2022-07-01T02:13:29;14.40;99.90
39021;DHT22;25188;51.958;5.842;2022-07-01T02:15:55;14.40;99.90
39021;DHT22;25188;51.958;5.842;2022-07-01T02:18:22;14.40;99.90
39021;DHT22;25188;51.958;5.842;2022-07-01T02:20:47;14.40;99.90
39021;DHT22;25188;51.958;5.842;2022-07-01T02:23:13;14.40;99.90
39021;DHT22;25188;51.958;5.842;2022-07-01T02:25:39;14.40;99.90
39021;DHT22;25188;51.958;5.842;2022-07-01T02:28:04;14.40;99.90
39021;DHT22;25188;51.958;5.842;2022-07-01T02:30:30;14.30;99.90
39021;DHT22;25188;51.958;5.842;2022-07-01T02:32:56;14.40;99.90
39021;DHT22;25188;51.958;5.842;2022-07-01T02:35:22;14.40;99.90
39021;DHT22;25188;51.958;5.842;2022-07-01T02:37:48;14.40;99.90
39021;DHT22;25188;51.958;5.842;2022-07-01T02:40:13;14.40;99.90
39021;DHT22;25188;51.958;5.842;2022-07-01T02:42:39;14.30;99.90
39021;DHT22;25188;51.958;5.842;2022-07-01T02:45:06;14.30;99.90
39021;DHT22;25188;51.958;5.842;2022-07-01T02:47:39;14.40;99.90
39021;DHT22;25188;51.958;5.842;2022-07-01T02:50:06;14.30;99.90
39021;DHT22;25188;51.958;5.842;2022-07-01T02:52:33;14.30;99.90
39021;DHT22;25188;51.958;5.842;2022-07-01T02:55:04;14.30;99.90
39021;DHT22;25188;51.958;5.842;2022-07-01T02:57:30;14.30;99.90
39021;DHT22;25188;51.958;5.842;2022-07-01T02:59:56;14.30;99.90
39021;DHT22;25188;51.958;5.842;2022-07-01T03:02:22;14.30;99.90
39021;DHT22;25188;51.958;5.842;2022-07-01T03:04:49;14.30;99.90
39021;DHT22;25188;51.958;5.842;2022-07-01T03:07:15;14.30;99.90
39021;DHT22;25188;51.958;5.842;2022-07-01T03:09:41;14.30;99.90
39021;DHT22;25188;51.958;5.842;2022-07-01T03:12:11;14.30;99.90
39021;DHT22;25188;51.958;5.842;2022-07-01T03:15:11;14.30;99.90
39021;DHT22;25188;51.958;5.842;2022-07-01T03:17:39;14.30;99.90
39021;DHT22;25188;51.958;5.842;2022-07-01T03:20:07;14.20;99.90
39021;DHT22;25188;51.958;5.842;2022-07-01T03:22:34;14.20;99.90
39021;DHT22;25188;51.958;5.842;2022-07-01T03:25:01;14.20;99.90
39021;DHT22;25188;51.958;5.842;2022-07-01T03:27:28;14.10;99.90
39021;DHT22;25188;51.958;5.842;2022-07-01T03:29:54;14.10;99.90
39021;DHT22;25188;51.958;5.842;2022-07-01T03:32:20;14.00;99.90
39021;DHT22;25188;51.958;5.842;2022-07-01T03:34:47;14.10;99.90
39021;DHT22;25188;51.958;5.842;2022-07-01T03:37:14;14.00;99.90
39021;DHT22;25188;51.958;5.842;2022-07-01T03:39:41;14.00;99.90
39021;DHT22;25188;51.958;5.842;2022-07-01T03:42:07;14.00;99.90
39021;DHT22;25188;51.958;5.842;2022-07-01T03:44:34;14.00;99.90
39021;DHT22;25188;51.958;5.842;2022-07-01T03:47:01;14.00;99.90
39021;DHT22;25188;51.958;5.842;2022-07-01T03:49:27;14.00;99.90
39021;DHT22;25188;51.958;5.842;2022-07-01T03:51:53;14.00;99.90
39021;DHT22;25188;51.958;5.842;2022-07-01T03:54:19;14.00;99.90
39021;DHT22;25188;51.958;5.842;2022-07-01T03:57:05;14.00;99.90
39021;DHT22;25188;51.958;5.842;2022-07-01T03:59:33;14.00;99.90
39021;DHT22;25188;51.958;5.842;2022-07-01T04:02:00;14.00;99.90
39021;DHT22;25188;51.958;5.842;2022-07-01T04:04:27;14.00;99.90
39021;DHT22;25188;51.958;5.842;2022-07-01T04:06:53;14.10;99.90
39021;DHT22;25188;51.958;5.842;2022-07-01T04:09:19;14.10;99.90
39021;DHT22;25188;51.958;5.842;2022-07-01T04:11:46;14.10;99.90
39021;DHT22;25188;51.958;5.842;2022-07-01T04:14:12;14.10;99.90
39021;DHT22;25188;51.958;5.842;2022-07-01T04:16:38;14.10;99.90
39021;DHT22;25188;51.958;5.842;2022-07-01T04:19:04;14.10;99.90
39021;DHT22;25188;51.958;5.842;2022-07-01T04:21:30;14.20;99.90
39021;DHT22;25188;51.958;5.842;2022-07-01T04:24:15;14.20;99.90
39021;DHT22;25188;51.958;5.842;2022-07-01T04:26:41;14.20;99.90
39021;DHT22;25188;51.958;5.842;2022-07-01T04:29:07;14.20;99.90
39021;DHT22;25188;51.958;5.842;2022-07-01T04:31:39;14.20;99.90
39021;DHT22;25188;51.958;5.842;2022-07-01T04:34:06;14.30;99.90
39021;DHT22;25188;51.958;5.842;2022-07-01T04:36:32;14.30;99.90
39021;DHT22;25188;51.958;5.842;2022-07-01T04:38:58;14.30;99.90
39021;DHT22;25188;51.958;5.842;2022-07-01T04:41:24;14.30;99.90
39021;DHT22;25188;51.958;5.842;2022-07-01T04:44:08;14.30;99.90
39021;DHT22;25188;51.958;5.842;2022-07-01T04:46:34;14.30;99.90
39021;DHT22;25188;51.958;5.842;2022-07-01T04:49:00;14.30;99.90
39021;DHT22;25188;51.958;5.842;2022-07-01T04:51:25;14.40;99.90
39021;DHT22;25188;51.958;5.842;2022-07-01T04:53:51;14.40;99.90
39021;DHT22;25188;51.958;5.842;2022-07-01T04:56:17;14.40;99.90
39021;DHT22;25188;51.958;5.842;2022-07-01T04:58:43;14.40;99.90
39021;DHT22;25188;51.958;5.842;2022-07-01T05:01:08;14.50;99.90
39021;DHT22;25188;51.958;5.842;2022-07-01T05:03:34;14.50;99.90
39021;DHT22;25188;51.958;5.842;2022-07-01T05:06:00;14.40;99.90
39021;DHT22;25188;51.958;5.842;2022-07-01T05:08:25;14.50;99.90
39021;DHT22;25188;51.958;5.842;2022-07-01T05:10:51;14.60;99.90
39021;DHT22;25188;51.958;5.842;2022-07-01T05:13:17;14.60;99.90
39021;DHT22;25188;51.958;5.842;2022-07-01T05:15:42;14.60;99.90
39021;DHT22;25188;51.958;5.842;2022-07-01T05:18:08;14.70;99.90
39021;DHT22;25188;51.958;5.842;2022-07-01T05:20:52;14.70;99.90
39021;DHT22;25188;51.958;5.842;2022-07-01T05:23:36;14.70;99.90
39021;DHT22;25188;51.958;5.842;2022-07-01T05:26:02;14.80;99.90
39021;DHT22;25188;51.958;5.842;2022-07-01T05:28:28;14.80;99.90
39021;DHT22;25188;51.958;5.842;2022-07-01T05:30:54;14.80;99.90
39021;DHT22;25188;51.958;5.842;2022-07-01T05:33:20;14.90;99.90
39021;DHT22;25188;51.958;5.842;2022-07-01T05:35:47;14.90;99.90
39021;DHT22;25188;51.958;5.842;2022-07-01T05:38:13;14.90;99.90
39021;DHT22;25188;51.958;5.842;2022-07-01T05:40:38;14.90;99.90
39021;DHT22;25188;51.958;5.842;2022-07-01T05:43:04;15.00;99.90
39021;DHT22;25188;51.958;5.842;2022-07-01T05:45:30;15.00;99.90
39021;DHT22;25188;51.958;5.842;2022-07-01T05:47:56;15.00;99.90
39021;DHT22;25188;51.958;5.842;2022-07-01T05:50:22;15.00;99.90
39021;DHT22;25188;51.958;5.842;2022-07-01T05:52:48;15.00;99.90
39021;DHT22;25188;51.958;5.842;2022-07-01T05:55:14;15.00;99.90
39021;DHT22;25188;51.958;5.842;2022-07-01T05:57:40;15.00;99.90
39021;DHT22;25188;51.958;5.842;2022-07-01T06:00:06;15.00;99.90
39021;DHT22;25188;51.958;5.842;2022-07-01T06:02:32;15.10;99.90
39021;DHT22;25188;51.958;5.842;2022-07-01T06:04:57;15.10;99.90
39021;DHT22;25188;51.958;5.842;2022-07-01T06:07:24;15.10;99.90
39021;DHT22;25188;51.958;5.842;2022-07-01T06:09:50;15.20;99.90
39021;DHT22;25188;51.958;5.842;2022-07-01T06:12:16;15.20;99.90
39021;DHT22;25188;51.958;5.842;2022-07-01T06:14:42;15.30;99.90
39021;DHT22;25188;51.958;5.842;2022-07-01T06:17:08;15.30;99.90
39021;DHT22;25188;51.958;5.842;2022-07-01T06:19:34;15.40;99.90
39021;DHT22;25188;51.958;5.842;2022-07-01T06:22:00;15.40;99.90
39021;DHT22;25188;51.958;5.842;2022-07-01T06:24:26;15.40;99.90
39021;DHT22;25188;51.958;5.842;2022-07-01T06:26:51;15.30;99.90
39021;DHT22;25188;51.958;5.842;2022-07-01T06:29:17;15.40;99.90
39021;DHT22;25188;51.958;5.842;2022-07-01T06:31:42;15.40;99.90
39021;DHT22;25188;51.958;5.842;2022-07-01T06:34:08;15.40;99.90
39021;DHT22;25188;51.958;5.842;2022-07-01T06:36:34;15.40;99.90
39021;DHT22;25188;51.958;5.842;2022-07-01T06:38:59;15.40;99.90
39021;DHT22;25188;51.958;5.842;2022-07-01T06:41:25;15.40;99.90
39021;DHT22;25188;51.958;5.842;2022-07-01T06:44:01;15.50;99.90
39021;DHT22;25188;51.958;5.842;2022-07-01T06:46:28;15.50;99.90
39021;DHT22;25188;51.958;5.842;2022-07-01T06:48:55;15.60;99.90
39021;DHT22;25188;51.958;5.842;2022-07-01T06:51:21;15.50;99.90
39021;DHT22;25188;51.958;5.842;2022-07-01T06:53:47;15.50;99.90
39021;DHT22;25188;51.958;5.842;2022-07-01T06:56:13;15.40;99.90
39021;DHT22;25188;51.958;5.842;2022-07-01T06:58:39;15.40;99.90
39021;DHT22;25188;51.958;5.842;2022-07-01T07:01:05;15.30;99.90
39021;DHT22;25188;51.958;5.842;2022-07-01T07:03:31;15.30;99.90
39021;DHT22;25188;51.958;5.842;2022-07-01T07:05:58;15.30;99.90
39021;DHT22;25188;51.958;5.842;2022-07-01T07:08:29;15.20;99.90
39021;DHT22;25188;51.958;5.842;2022-07-01T07:10:55;15.30;99.90
39021;DHT22;25188;51.958;5.842;2022-07-01T07:13:20;15.30;99.90
39021;DHT22;25188;51.958;5.842;2022-07-01T07:15:46;15.30;99.90
39021;DHT22;25188;51.958;5.842;2022-07-01T07:18:12;15.30;99.90
39021;DHT22;25188;51.958;5.842;2022-07-01T07:20:37;15.30;99.90
39021;DHT22;25188;51.958;5.842;2022-07-01T07:23:03;15.40;99.90
39021;DHT22;25188;51.958;5.842;2022-07-01T07:25:29;15.40;99.90
39021;DHT22;25188;51.958;5.842;2022-07-01T07:27:55;15.40;99.90
39021;DHT22;25188;51.958;5.842;2022-07-01T07:30:21;15.50;99.90
39021;DHT22;25188;51.958;5.842;2022-07-01T07:32:46;15.50;99.90
39021;DHT22;25188;51.958;5.842;2022-07-01T07:35:12;15.60;99.90
39021;DHT22;25188;51.958;5.842;2022-07-01T07:37:39;15.70;99.90
39021;DHT22;25188;51.958;5.842;2022-07-01T07:40:07;15.80;99.90
39021;DHT22;25188;51.958;5.842;2022-07-01T07:42:35;15.90;99.90
39021;DHT22;25188;51.958;5.842;2022-07-01T07:45:02;16.00;99.90
39021;DHT22;25188;51.958;5.842;2022-07-01T07:47:28;16.20;99.90
39021;DHT22;25188;51.958;5.842;2022-07-01T07:49:54;16.30;99.90
39021;DHT22;25188;51.958;5.842;2022-07-01T07:52:19;16.40;99.90
39021;DHT22;25188;51.958;5.842;2022-07-01T07:54:45;16.60;99.90
39021;DHT22;25188;51.958;5.842;2022-07-01T07:57:11;16.70;99.90
39021;DHT22;25188;51.958;5.842;2022-07-01T07:59:37;16.80;99.90
39021;DHT22;25188;51.958;5.842;2022-07-01T08:02:03;16.80;99.90
39021;DHT22;25188;51.958;5.842;2022-07-01T08:04:28;16.90;99.90
39021;DHT22;25188;51.958;5.842;2022-07-01T08:06:54;17.00;99.90
39021;DHT22;25188;51.958;5.842;2022-07-01T08:09:20;17.00;99.70
39021;DHT22;25188;51.958;5.842;2022-07-01T08:11:45;17.00;99.60
39021;DHT22;25188;51.958;5.842;2022-07-01T08:14:11;17.10;99.70
39021;DHT22;25188;51.958;5.842;2022-07-01T08:16:36;17.20;99.30
39021;DHT22;25188;51.958;5.842;2022-07-01T08:19:02;17.30;99.30
39021;DHT22;25188;51.958;5.842;2022-07-01T08:21:29;17.40;98.80
39021;DHT22;25188;51.958;5.842;2022-07-01T08:23:55;17.40;98.60
39021;DHT22;25188;51.958;5.842;2022-07-01T08:26:21;17.50;98.20
39021;DHT22;25188;51.958;5.842;2022-07-01T08:28:47;17.60;97.60
39021;DHT22;25188;51.958;5.842;2022-07-01T08:31:13;17.60;97.40
39021;DHT22;25188;51.958;5.842;2022-07-01T08:33:39;17.70;96.80
39021;DHT22;25188;51.958;5.842;2022-07-01T08:36:06;17.70;96.50
39021;DHT22;25188;51.958;5.842;2022-07-01T08:38:32;17.70;96.80
39021;DHT22;25188;51.958;5.842;2022-07-01T08:40:58;17.80;96.50
39021;DHT22;25188;51.958;5.842;2022-07-01T08:43:24;17.80;95.70
39021;DHT22;25188;51.958;5.842;2022-07-01T08:45:51;17.90;95.40
39021;DHT22;25188;51.958;5.842;2022-07-01T08:48:17;17.90;95.70
39021;DHT22;25188;51.958;5.842;2022-07-01T08:50:43;18.00;94.70
39021;DHT22;25188;51.958;5.842;2022-07-01T08:53:11;18.00;94.80
39021;DHT22;25188;51.958;5.842;2022-07-01T08:55:37;18.00;94.90
39021;DHT22;25188;51.958;5.842;2022-07-01T08:58:26;18.10;94.00
39021;DHT22;25188;51.958;5.842;2022-07-01T09:00:53;18.10;94.00
39021;DHT22;25188;51.958;5.842;2022-07-01T09:03:22;18.10;93.60
39021;DHT22;25188;51.958;5.842;2022-07-01T09:05:52;18.10;93.20
39021;DHT22;25188;51.958;5.842;2022-07-01T09:08:18;18.20;92.90
39021;DHT22;25188;51.958;5.842;2022-07-01T09:10:45;18.20;91.90
39021;DHT22;25188;51.958;5.842;2022-07-01T09:13:12;18.10;92.00
39021;DHT22;25188;51.958;5.842;2022-07-01T09:15:39;18.10;91.80
39021;DHT22;25188;51.958;5.842;2022-07-01T09:20:39;18.30;91.60
39021;DHT22;25188;51.958;5.842;2022-07-01T09:23:08;18.30;91.50
39021;DHT22;25188;51.958;5.842;2022-07-01T09:25:38;18.40;91.30
39021;DHT22;25188;51.958;5.842;2022-07-01T09:28:07;18.40;90.70
39021;DHT22;25188;51.958;5.842;2022-07-01T09:30:34;18.40;89.00
39021;DHT22;25188;51.958;5.842;2022-07-01T09:33:14;18.50;90.00
39021;DHT22;25188;51.958;5.842;2022-07-01T09:35:40;18.50;89.00
39021;DHT22;25188;51.958;5.842;2022-07-01T09:38:07;18.50;87.90
39021;DHT22;25188;51.958;5.842;2022-07-01T09:40:55;18.60;86.20
39021;DHT22;25188;51.958;5.842;2022-07-01T09:43:23;18.70;86.10
39021;DHT22;25188;51.958;5.842;2022-07-01T09:45:59;18.80;85.20
39021;DHT22;25188;51.958;5.842;2022-07-01T09:48:48;18.90;85.70
39021;DHT22;25188;51.958;5.842;2022-07-01T09:51:14;19.10;84.80
39021;DHT22;25188;51.958;5.842;2022-07-01T09:53:41;19.20;83.10
39021;DHT22;25188;51.958;5.842;2022-07-01T09:56:07;19.40;83.30
39021;DHT22;25188;51.958;5.842;2022-07-01T09:58:33;19.40;82.40
39021;DHT22;25188;51.958;5.842;2022-07-01T10:01:02;19.60;81.90
39021;DHT22;25188;51.958;5.842;2022-07-01T10:03:31;19.70;81.20
39021;DHT22;25188;51.958;5.842;2022-07-01T10:06:24;19.80;80.20
39021;DHT22;25188;51.958;5.842;2022-07-01T10:12:12;20.10;79.50
39021;DHT22;25188;51.958;5.842;2022-07-01T10:14:46;20.20;79.10
39021;DHT22;25188;51.958;5.842;2022-07-01T10:17:30;20.30;78.50
39021;DHT22;25188;51.958;5.842;2022-07-01T10:20:07;20.30;77.30
39021;DHT22;25188;51.958;5.842;2022-07-01T10:22:35;20.30;76.70
39021;DHT22;25188;51.958;5.842;2022-07-01T10:25:30;20.20;76.20
39021;DHT22;25188;51.958;5.842;2022-07-01T10:36:06;20.30;74.30
39021;DHT22;25188;51.958;5.842;2022-07-01T10:38:33;20.40;74.00
39021;DHT22;25188;51.958;5.842;2022-07-01T10:40:58;20.60;73.10
39021;DHT22;25188;51.958;5.842;2022-07-01T10:43:36;20.80;72.50
39021;DHT22;25188;51.958;5.842;2022-07-01T10:46:03;21.00;71.80
39021;DHT22;25188;51.958;5.842;2022-07-01T10:48:32;21.30;71.60
39021;DHT22;25188;51.958;5.842;2022-07-01T10:50:59;21.40;69.50
39021;DHT22;25188;51.958;5.842;2022-07-01T10:53:44;21.50;69.60
39021;DHT22;25188;51.958;5.842;2022-07-01T10:56:15;21.70;67.70
39021;DHT22;25188;51.958;5.842;2022-07-01T10:58:42;22.00;67.10
39021;DHT22;25188;51.958;5.842;2022-07-01T11:01:08;22.20;67.20
39021;DHT22;25188;51.958;5.842;2022-07-01T11:03:35;22.50;67.60
39021;DHT22;25188;51.958;5.842;2022-07-01T11:06:02;22.80;66.70
39021;DHT22;25188;51.958;5.842;2022-07-01T11:08:28;23.10;67.00
39021;DHT22;25188;51.958;5.842;2022-07-01T11:10:59;23.40;66.40
39021;DHT22;25188;51.958;5.842;2022-07-01T11:13:27;23.70;63.70
39021;DHT22;25188;51.958;5.842;2022-07-01T11:15:53;24.10;64.40
39021;DHT22;25188;51.958;5.842;2022-07-01T11:18:20;24.60;61.60
39021;DHT22;25188;51.958;5.842;2022-07-01T11:20:46;24.90;59.60
39021;DHT22;25188;51.958;5.842;2022-07-01T11:23:12;25.00;58.80
39021;DHT22;25188;51.958;5.842;2022-07-01T11:25:38;25.40;57.60
39021;DHT22;25188;51.958;5.842;2022-07-01T11:28:03;25.30;55.60
39021;DHT22;25188;51.958;5.842;2022-07-01T11:30:29;25.00;55.10
39021;DHT22;25188;51.958;5.842;2022-07-01T11:32:57;24.60;55.30
39021;DHT22;25188;51.958;5.842;2022-07-01T11:35:26;24.80;55.90
39021;DHT22;25188;51.958;5.842;2022-07-01T11:38:17;25.00;56.70
39021;DHT22;25188;51.958;5.842;2022-07-01T11:41:04;25.20;56.90
39021;DHT22;25188;51.958;5.842;2022-07-01T11:43:35;25.30;56.80
39021;DHT22;25188;51.958;5.842;2022-07-01T11:46:02;25.40;56.90
39021;DHT22;25188;51.958;5.842;2022-07-01T11:51:18;25.70;56.70
39021;DHT22;25188;51.958;5.842;2022-07-01T11:53:46;25.80;56.10
39021;DHT22;25188;51.958;5.842;2022-07-01T11:56:12;25.90;56.00
39021;DHT22;25188;51.958;5.842;2022-07-01T12:01:07;26.00;55.20
39021;DHT22;25188;51.958;5.842;2022-07-01T12:03:34;26.00;54.70
39021;DHT22;25188;51.958;5.842;2022-07-01T12:06:00;26.00;54.30
39021;DHT22;25188;51.958;5.842;2022-07-01T12:08:26;26.10;54.20
39021;DHT22;25188;51.958;5.842;2022-07-01T12:10:52;26.10;54.10
39021;DHT22;25188;51.958;5.842;2022-07-01T12:13:25;26.20;53.30
39021;DHT22;25188;51.958;5.842;2022-07-01T12:15:52;26.30;53.00
39021;DHT22;25188;51.958;5.842;2022-07-01T12:18:18;26.30;52.80
39021;DHT22;25188;51.958;5.842;2022-07-01T12:20:54;26.20;52.50
39021;DHT22;25188;51.958;5.842;2022-07-01T12:23:20;26.00;52.80
39021;DHT22;25188;51.958;5.842;2022-07-01T12:25:52;25.90;52.40
39021;DHT22;25188;51.958;5.842;2022-07-01T12:28:28;26.00;52.70
39021;DHT22;25188;51.958;5.842;2022-07-01T12:31:09;26.00;52.20
39021;DHT22;25188;51.958;5.842;2022-07-01T12:33:36;25.90;52.00
39021;DHT22;25188;51.958;5.842;2022-07-01T12:36:03;25.70;51.80
39021;DHT22;25188;51.958;5.842;2022-07-01T12:38:29;25.50;51.60
39021;DHT22;25188;51.958;5.842;2022-07-01T12:40:56;25.40;51.60
39021;DHT22;25188;51.958;5.842;2022-07-01T12:43:23;25.40;51.20
39021;DHT22;25188;51.958;5.842;2022-07-01T12:45:49;25.40;51.90
39021;DHT22;25188;51.958;5.842;2022-07-01T12:48:15;25.60;52.20
39021;DHT22;25188;51.958;5.842;2022-07-01T12:50:40;25.80;52.00
39021;DHT22;25188;51.958;5.842;2022-07-01T12:55:36;26.30;51.40
39021;DHT22;25188;51.958;5.842;2022-07-01T12:58:07;26.50;51.50
39021;DHT22;25188;51.958;5.842;2022-07-01T13:00:34;26.80;50.70
39021;DHT22;25188;51.958;5.842;2022-07-01T13:03:02;27.00;50.80
39021;DHT22;25188;51.958;5.842;2022-07-01T13:05:30;27.30;50.40
39021;DHT22;25188;51.958;5.842;2022-07-01T13:07:56;27.30;50.30
39021;DHT22;25188;51.958;5.842;2022-07-01T13:10:22;27.40;50.10
39021;DHT22;25188;51.958;5.842;2022-07-01T13:12:48;27.60;50.00
39021;DHT22;25188;51.958;5.842;2022-07-01T13:15:15;27.50;49.10
39021;DHT22;25188;51.958;5.842;2022-07-01T13:17:42;27.30;48.90
39021;DHT22;25188;51.958;5.842;2022-07-01T13:20:08;27.00;48.60
39021;DHT22;25188;51.958;5.842;2022-07-01T13:22:35;26.60;49.00
39021;DHT22;25188;51.958;5.842;2022-07-01T13:25:02;26.30;49.30
39021;DHT22;25188;51.958;5.842;2022-07-01T13:27:28;26.00;49.80
39021;DHT22;25188;51.958;5.842;2022-07-01T13:29:53;25.90;50.70
39021;DHT22;25188;51.958;5.842;2022-07-01T13:32:19;25.70;50.40
39021;DHT22;25188;51.958;5.842;2022-07-01T13:34:45;25.60;51.10
39021;DHT22;25188;51.958;5.842;2022-07-01T13:37:11;25.60;50.90
39021;DHT22;25188;51.958;5.842;2022-07-01T13:39:37;25.50;51.10
39021;DHT22;25188;51.958;5.842;2022-07-01T13:42:02;25.50;51.50
39021;DHT22;25188;51.958;5.842;2022-07-01T13:44:28;25.50;51.50
39021;DHT22;25188;51.958;5.842;2022-07-01T13:46:54;25.70;51.40
39021;DHT22;25188;51.958;5.842;2022-07-01T13:49:19;26.00;51.30
39021;DHT22;25188;51.958;5.842;2022-07-01T13:51:45;26.20;50.60
39021;DHT22;25188;51.958;5.842;2022-07-01T13:54:11;26.30;50.20
39021;DHT22;25188;51.958;5.842;2022-07-01T13:56:36;26.50;49.80
39021;DHT22;25188;51.958;5.842;2022-07-01T13:59:02;26.80;49.50
39021;DHT22;25188;51.958;5.842;2022-07-01T14:01:28;27.10;49.00
39021;DHT22;25188;51.958;5.842;2022-07-01T14:03:55;27.40;49.00
39021;DHT22;25188;51.958;5.842;2022-07-01T14:06:20;27.60;48.60
39021;DHT22;25188;51.958;5.842;2022-07-01T14:08:47;27.90;48.50
39021;DHT22;25188;51.958;5.842;2022-07-01T14:11:13;27.90;48.00
39021;DHT22;25188;51.958;5.842;2022-07-01T14:13:39;27.80;47.80
39021;DHT22;25188;51.958;5.842;2022-07-01T14:16:06;27.60;47.70
39021;DHT22;25188;51.958;5.842;2022-07-01T14:18:36;27.50;47.60
39021;DHT22;25188;51.958;5.842;2022-07-01T14:21:03;27.30;47.30
39021;DHT22;25188;51.958;5.842;2022-07-01T14:23:29;27.10;47.80
39021;DHT22;25188;51.958;5.842;2022-07-01T14:25:55;27.20;48.30
39021;DHT22;25188;51.958;5.842;2022-07-01T14:28:20;27.30;48.40
39021;DHT22;25188;51.958;5.842;2022-07-01T14:30:46;27.50;48.20
39021;DHT22;25188;51.958;5.842;2022-07-01T14:33:12;27.60;47.80
39021;DHT22;25188;51.958;5.842;2022-07-01T14:35:38;27.80;47.50
39021;DHT22;25188;51.958;5.842;2022-07-01T14:38:04;28.10;46.60
39021;DHT22;25188;51.958;5.842;2022-07-01T14:40:31;28.40;45.90
39021;DHT22;25188;51.958;5.842;2022-07-01T14:42:58;28.50;45.60
39021;DHT22;25188;51.958;5.842;2022-07-01T14:45:24;28.50;45.10
39021;DHT22;25188;51.958;5.842;2022-07-01T14:47:49;28.50;45.30
39021;DHT22;25188;51.958;5.842;2022-07-01T14:50:15;28.40;44.70
39021;DHT22;25188;51.958;5.842;2022-07-01T14:52:41;28.20;45.10
39021;DHT22;25188;51.958;5.842;2022-07-01T14:55:07;28.10;45.40
39021;DHT22;25188;51.958;5.842;2022-07-01T14:57:33;28.00;45.60
39021;DHT22;25188;51.958;5.842;2022-07-01T14:59:59;27.70;45.60
39021;DHT22;25188;51.958;5.842;2022-07-01T15:02:26;27.50;46.00
39021;DHT22;25188;51.958;5.842;2022-07-01T15:04:52;27.10;46.00
39021;DHT22;25188;51.958;5.842;2022-07-01T15:07:18;26.70;46.90
39021;DHT22;25188;51.958;5.842;2022-07-01T15:09:43;26.30;47.20
39021;DHT22;25188;51.958;5.842;2022-07-01T15:12:09;25.90;47.70
39021;DHT22;25188;51.958;5.842;2022-07-01T15:14:35;25.70;48.30
39021;DHT22;25188;51.958;5.842;2022-07-01T15:17:01;25.60;48.80
39021;DHT22;25188;51.958;5.842;2022-07-01T15:19:27;25.40;49.30
39021;DHT22;25188;51.958;5.842;2022-07-01T15:21:54;25.30;49.90
39021;DHT22;25188;51.958;5.842;2022-07-01T15:24:20;25.10;50.30
39021;DHT22;25188;51.958;5.842;2022-07-01T15:26:45;25.00;51.50
39021;DHT22;25188;51.958;5.842;2022-07-01T15:29:12;24.80;51.40
39021;DHT22;25188;51.958;5.842;2022-07-01T15:31:37;24.60;51.90
39021;DHT22;25188;51.958;5.842;2022-07-01T15:34:03;24.50;52.30
39021;DHT22;25188;51.958;5.842;2022-07-01T15:36:29;24.30;52.70
39021;DHT22;25188;51.958;5.842;2022-07-01T15:38:54;24.20;53.20
39021;DHT22;25188;51.958;5.842;2022-07-01T15:41:23;24.10;53.60
39021;DHT22;25188;51.958;5.842;2022-07-01T15:43:49;24.00;53.70
39021;DHT22;25188;51.958;5.842;2022-07-01T15:46:15;23.80;54.00
39021;DHT22;25188;51.958;5.842;2022-07-01T15:48:41;23.70;54.40
39021;DHT22;25188;51.958;5.842;2022-07-01T15:51:06;23.60;54.60
39021;DHT22;25188;51.958;5.842;2022-07-01T15:53:32;23.60;54.90